Bradford Regional Airport
KBFD : rendu visible

Aérodrome :











RETROUVEZ-NOUS SUR...

 
LOGIN :

S'inscrire | Disclaimer

   EN    FR    IT 

 









Légende :    VFR   VFR Marginal   IFR   IFR Intensif   IFR Très Intensif
Visi : 
Plafond : 
>= 8 km
>= 3000ft
5 à 8 km
1000 à 3000 ft
1500m à 5 km
500 à 1000 ft
800 à 1500m
200 à 500 ft
< 800m
< 200 ft
Symboles :   Orages  Brouillard  Fortes neiges  Fortes précipitations  Vent > 20 kt






- Altitude de l'aérodrome : 2143 ft
- Code IATA : BFD


KBFD - Bradford Regional

DERNIER METAR :
  • 081253Z AUTO 31008KT 10SM OVC007 09/07 A2961 RMK AO2 CIG 006V012 SLP026 T00940072

METARs EXPIRÉS :
  • 081212Z AUTO 32010KT 10SM OVC009 10/08 A2961 RMK AO2 CIG 008V013 T01000078
  • 081153Z AUTO 31010KT 10SM OVC011 10/08 A2961 RMK AO2 SLP026 60000 70071 T01000078 10100 20094 53016
  • 081140Z AUTO 31009KT 10SM SCT009 BKN013 OVC020 10/08 A2960 RMK AO2 T01000078
  • 081053Z AUTO 30008KT 10SM FEW008 OVC022 10/08 A2959 RMK AO2 SLP019 T01000078
  • 081043Z AUTO 31010KT 10SM SCT009 OVC022 10/08 A2959 RMK AO2 T01000078
  • 080953Z AUTO 30007KT 10SM OVC007 10/08 A2957 RMK AO2 CIG 006V010 SLP013 T01000078

TAF KBFD
Valide du 08 à 12h jusqu'au 09 à 12h UTC


081129Z 0812/0912 30008KT P6SM OVC007
TEMPO 0812/0814 OVC005
FM081530 30010G18KT P6SM BKN015
FM081800 31012G22KT P6SM SCT045
FM090000 VRB04KT P6SM SCT150
FM090900 20007KT P6SM -SHRA OVC025
FM091100 20007KT 4SM -SHRA OVC009



MET'MAP, la Météo Aéronautique d'un coup d'oeil ! - Copyright ORBIFLY Décembre 2007 - Disclaimer

ORBIFLY MET'MAP TEAM :

Programmation & Développement : Alexandra Zaïnal
Sur une idée originale de : Baudouin d'Aumeries
Assistance à la programmation : Marc-Olivier Méhu
Soutien technique & logistique : Manuel Goepfert

Contact : metmap@orbifly.com




SOURCES & CREDITS :

   NOAA       Earth
Advisory